sensor_id;sensor_type;location;lat;lon;timestamp;P1;durP1;ratioP1;P2;durP2;ratioP2
51883;SDS011;37915;53.254;6.598;2024-01-07T00:00:21;13.32;;;6.88;;
51883;SDS011;37915;53.254;6.598;2024-01-07T00:02:47;12.30;;;6.97;;
51883;SDS011;37915;53.254;6.598;2024-01-07T00:05:14;12.40;;;6.70;;
51883;SDS011;37915;53.254;6.598;2024-01-07T00:07:40;15.70;;;7.38;;
51883;SDS011;37915;53.254;6.598;2024-01-07T00:10:06;11.48;;;7.13;;
51883;SDS011;37915;53.254;6.598;2024-01-07T00:12:34;14.18;;;7.10;;
51883;SDS011;37915;53.254;6.598;2024-01-07T00:15:00;13.32;;;6.50;;
51883;SDS011;37915;53.254;6.598;2024-01-07T00:17:26;16.58;;;7.28;;
51883;SDS011;37915;53.254;6.598;2024-01-07T00:19:53;14.73;;;7.53;;
51883;SDS011;37915;53.254;6.598;2024-01-07T00:22:19;12.82;;;6.15;;
51883;SDS011;37915;53.254;6.598;2024-01-07T00:24:45;12.73;;;6.88;;
51883;SDS011;37915;53.254;6.598;2024-01-07T00:27:11;11.82;;;6.63;;
51883;SDS011;37915;53.254;6.598;2024-01-07T00:29:37;15.18;;;6.72;;
51883;SDS011;37915;53.254;6.598;2024-01-07T00:32:03;11.30;;;6.57;;
51883;SDS011;37915;53.254;6.598;2024-01-07T00:34:29;14.30;;;7.13;;
51883;SDS011;37915;53.254;6.598;2024-01-07T00:36:55;13.82;;;7.05;;
51883;SDS011;37915;53.254;6.598;2024-01-07T00:39:22;13.45;;;6.88;;
51883;SDS011;37915;53.254;6.598;2024-01-07T00:41:48;12.75;;;6.47;;
51883;SDS011;37915;53.254;6.598;2024-01-07T00:44:14;11.43;;;5.88;;
51883;SDS011;37915;53.254;6.598;2024-01-07T00:46:40;10.82;;;6.15;;
51883;SDS011;37915;53.254;6.598;2024-01-07T00:49:06;9.90;;;6.43;;
51883;SDS011;37915;53.254;6.598;2024-01-07T00:51:32;11.43;;;6.13;;
51883;SDS011;37915;53.254;6.598;2024-01-07T00:53:58;14.98;;;6.43;;
51883;SDS011;37915;53.254;6.598;2024-01-07T00:56:27;14.55;;;7.80;;
51883;SDS011;37915;53.254;6.598;2024-01-07T00:58:53;14.30;;;7.68;;
51883;SDS011;37915;53.254;6.598;2024-01-07T01:01:20;10.70;;;6.68;;
51883;SDS011;37915;53.254;6.598;2024-01-07T01:03:46;13.65;;;6.45;;
51883;SDS011;37915;53.254;6.598;2024-01-07T01:06:12;17.27;;;6.80;;
51883;SDS011;37915;53.254;6.598;2024-01-07T01:08:38;13.07;;;6.90;;
51883;SDS011;37915;53.254;6.598;2024-01-07T01:11:05;13.77;;;6.88;;
51883;SDS011;37915;53.254;6.598;2024-01-07T01:13:31;13.20;;;6.40;;
51883;SDS011;37915;53.254;6.598;2024-01-07T01:15:57;11.57;;;6.78;;
51883;SDS011;37915;53.254;6.598;2024-01-07T01:18:23;11.85;;;6.75;;
51883;SDS011;37915;53.254;6.598;2024-01-07T01:20:49;11.65;;;7.00;;
51883;SDS011;37915;53.254;6.598;2024-01-07T01:23:15;13.43;;;6.47;;
51883;SDS011;37915;53.254;6.598;2024-01-07T01:25:41;12.65;;;6.03;;
51883;SDS011;37915;53.254;6.598;2024-01-07T01:28:07;11.82;;;6.10;;
51883;SDS011;37915;53.254;6.598;2024-01-07T01:30:33;16.55;;;7.10;;
51883;SDS011;37915;53.254;6.598;2024-01-07T01:33:00;11.15;;;5.95;;
51883;SDS011;37915;53.254;6.598;2024-01-07T01:35:27;10.98;;;5.82;;
51883;SDS011;37915;53.254;6.598;2024-01-07T01:37:53;11.75;;;6.00;;
51883;SDS011;37915;53.254;6.598;2024-01-07T01:40:19;13.77;;;6.22;;
51883;SDS011;37915;53.254;6.598;2024-01-07T01:42:45;12.95;;;6.05;;
51883;SDS011;37915;53.254;6.598;2024-01-07T01:45:13;11.80;;;5.50;;
51883;SDS011;37915;53.254;6.598;2024-01-07T01:47:40;10.45;;;6.25;;
51883;SDS011;37915;53.254;6.598;2024-01-07T01:50:06;11.00;;;6.13;;
51883;SDS011;37915;53.254;6.598;2024-01-07T01:52:33;12.32;;;5.75;;
51883;SDS011;37915;53.254;6.598;2024-01-07T01:55:00;13.43;;;6.03;;
51883;SDS011;37915;53.254;6.598;2024-01-07T01:57:29;12.07;;;5.70;;
51883;SDS011;37915;53.254;6.598;2024-01-07T01:59:58;10.05;;;5.22;;
51883;SDS011;37915;53.254;6.598;2024-01-07T02:02:29;9.77;;;5.30;;
51883;SDS011;37915;53.254;6.598;2024-01-07T02:04:56;11.95;;;5.40;;
51883;SDS011;37915;53.254;6.598;2024-01-07T02:07:24;10.40;;;6.25;;
51883;SDS011;37915;53.254;6.598;2024-01-07T02:09:50;7.90;;;4.97;;
51883;SDS011;37915;53.254;6.598;2024-01-07T02:12:16;11.20;;;5.25;;
51883;SDS011;37915;53.254;6.598;2024-01-07T02:14:42;10.18;;;4.95;;
51883;SDS011;37915;53.254;6.598;2024-01-07T02:17:08;8.85;;;5.40;;
51883;SDS011;37915;53.254;6.598;2024-01-07T02:19:34;10.20;;;5.55;;
51883;SDS011;37915;53.254;6.598;2024-01-07T02:22:00;9.13;;;5.35;;
51883;SDS011;37915;53.254;6.598;2024-01-07T02:24:27;8.77;;;5.53;;
51883;SDS011;37915;53.254;6.598;2024-01-07T02:26:53;13.32;;;5.22;;
51883;SDS011;37915;53.254;6.598;2024-01-07T02:29:19;8.48;;;5.28;;
51883;SDS011;37915;53.254;6.598;2024-01-07T02:31:45;11.32;;;5.28;;
51883;SDS011;37915;53.254;6.598;2024-01-07T02:34:11;8.32;;;5.07;;
51883;SDS011;37915;53.254;6.598;2024-01-07T02:36:37;9.50;;;5.10;;
51883;SDS011;37915;53.254;6.598;2024-01-07T02:39:03;12.73;;;5.22;;
51883;SDS011;37915;53.254;6.598;2024-01-07T02:41:29;8.13;;;4.47;;
51883;SDS011;37915;53.254;6.598;2024-01-07T02:43:56;11.30;;;5.63;;
51883;SDS011;37915;53.254;6.598;2024-01-07T02:46:23;7.82;;;4.80;;
51883;SDS011;37915;53.254;6.598;2024-01-07T02:48:49;6.97;;;4.22;;
51883;SDS011;37915;53.254;6.598;2024-01-07T02:51:15;10.80;;;5.65;;
51883;SDS011;37915;53.254;6.598;2024-01-07T02:53:42;9.48;;;4.80;;
51883;SDS011;37915;53.254;6.598;2024-01-07T02:56:08;10.65;;;4.80;;
51883;SDS011;37915;53.254;6.598;2024-01-07T02:58:34;5.38;;;3.72;;
51883;SDS011;37915;53.254;6.598;2024-01-07T03:01:00;7.78;;;4.53;;
51883;SDS011;37915;53.254;6.598;2024-01-07T03:03:26;9.52;;;4.28;;
51883;SDS011;37915;53.254;6.598;2024-01-07T03:05:52;11.63;;;5.00;;
51883;SDS011;37915;53.254;6.598;2024-01-07T03:08:18;8.30;;;4.28;;
51883;SDS011;37915;53.254;6.598;2024-01-07T03:10:44;8.02;;;4.00;;
51883;SDS011;37915;53.254;6.598;2024-01-07T03:13:11;11.35;;;4.07;;
51883;SDS011;37915;53.254;6.598;2024-01-07T03:15:37;10.68;;;4.43;;
51883;SDS011;37915;53.254;6.598;2024-01-07T03:18:03;10.13;;;4.57;;
51883;SDS011;37915;53.254;6.598;2024-01-07T03:20:29;7.63;;;3.88;;
51883;SDS011;37915;53.254;6.598;2024-01-07T03:22:55;9.73;;;3.67;;
51883;SDS011;37915;53.254;6.598;2024-01-07T03:25:22;7.15;;;3.80;;
51883;SDS011;37915;53.254;6.598;2024-01-07T03:27:48;6.03;;;3.72;;
51883;SDS011;37915;53.254;6.598;2024-01-07T03:30:14;7.32;;;4.18;;
51883;SDS011;37915;53.254;6.598;2024-01-07T03:32:40;8.43;;;4.38;;
51883;SDS011;37915;53.254;6.598;2024-01-07T03:35:07;6.50;;;4.13;;
51883;SDS011;37915;53.254;6.598;2024-01-07T03:37:36;5.80;;;3.70;;
51883;SDS011;37915;53.254;6.598;2024-01-07T03:40:02;7.47;;;3.80;;
51883;SDS011;37915;53.254;6.598;2024-01-07T03:42:28;7.55;;;3.75;;
51883;SDS011;37915;53.254;6.598;2024-01-07T03:44:54;10.88;;;4.07;;
51883;SDS011;37915;53.254;6.598;2024-01-07T03:47:20;6.43;;;3.63;;
51883;SDS011;37915;53.254;6.598;2024-01-07T03:49:46;8.30;;;3.38;;
51883;SDS011;37915;53.254;6.598;2024-01-07T03:52:12;5.50;;;2.78;;
51883;SDS011;37915;53.254;6.598;2024-01-07T03:54:39;6.90;;;3.30;;
51883;SDS011;37915;53.254;6.598;2024-01-07T03:57:05;5.88;;;3.05;;
51883;SDS011;37915;53.254;6.598;2024-01-07T03:59:31;8.80;;;3.70;;
51883;SDS011;37915;53.254;6.598;2024-01-07T04:01:57;5.88;;;3.78;;
51883;SDS011;37915;53.254;6.598;2024-01-07T04:04:23;7.60;;;3.53;;
51883;SDS011;37915;53.254;6.598;2024-01-07T04:06:49;5.55;;;3.05;;
51883;SDS011;37915;53.254;6.598;2024-01-07T04:09:15;7.75;;;3.42;;
51883;SDS011;37915;53.254;6.598;2024-01-07T04:11:42;7.80;;;3.47;;
51883;SDS011;37915;53.254;6.598;2024-01-07T04:14:08;9.73;;;3.25;;
51883;SDS011;37915;53.254;6.598;2024-01-07T04:16:34;7.68;;;3.40;;
51883;SDS011;37915;53.254;6.598;2024-01-07T04:19:01;7.60;;;3.72;;
51883;SDS011;37915;53.254;6.598;2024-01-07T04:21:27;5.35;;;3.05;;
51883;SDS011;37915;53.254;6.598;2024-01-07T04:23:53;8.13;;;3.47;;
51883;SDS011;37915;53.254;6.598;2024-01-07T04:26:19;5.20;;;3.08;;
51883;SDS011;37915;53.254;6.598;2024-01-07T04:28:45;5.75;;;2.75;;
51883;SDS011;37915;53.254;6.598;2024-01-07T04:31:11;6.40;;;3.20;;
51883;SDS011;37915;53.254;6.598;2024-01-07T04:33:37;10.27;;;3.17;;
51883;SDS011;37915;53.254;6.598;2024-01-07T04:36:03;6.82;;;2.60;;
51883;SDS011;37915;53.254;6.598;2024-01-07T04:38:30;7.78;;;3.30;;
51883;SDS011;37915;53.254;6.598;2024-01-07T04:40:56;7.93;;;3.25;;
51883;SDS011;37915;53.254;6.598;2024-01-07T04:43:22;7.85;;;3.05;;
51883;SDS011;37915;53.254;6.598;2024-01-07T04:45:48;5.47;;;2.60;;
51883;SDS011;37915;53.254;6.598;2024-01-07T04:48:14;6.28;;;2.67;;
51883;SDS011;37915;53.254;6.598;2024-01-07T04:50:40;5.20;;;2.53;;
51883;SDS011;37915;53.254;6.598;2024-01-07T04:53:09;6.60;;;2.70;;
51883;SDS011;37915;53.254;6.598;2024-01-07T04:55:36;6.22;;;2.40;;
51883;SDS011;37915;53.254;6.598;2024-01-07T04:58:02;5.53;;;3.08;;
51883;SDS011;37915;53.254;6.598;2024-01-07T05:00:29;5.50;;;2.55;;
51883;SDS011;37915;53.254;6.598;2024-01-07T05:02:55;4.50;;;2.47;;
51883;SDS011;37915;53.254;6.598;2024-01-07T05:05:22;6.50;;;3.00;;
51883;SDS011;37915;53.254;6.598;2024-01-07T05:07:48;7.65;;;2.47;;
51883;SDS011;37915;53.254;6.598;2024-01-07T05:10:14;5.60;;;2.15;;
51883;SDS011;37915;53.254;6.598;2024-01-07T05:12:40;5.78;;;2.33;;
51883;SDS011;37915;53.254;6.598;2024-01-07T05:15:07;6.78;;;2.83;;
51883;SDS011;37915;53.254;6.598;2024-01-07T05:17:34;4.93;;;2.13;;
51883;SDS011;37915;53.254;6.598;2024-01-07T05:20:00;6.35;;;2.55;;
51883;SDS011;37915;53.254;6.598;2024-01-07T05:22:26;6.35;;;2.17;;
51883;SDS011;37915;53.254;6.598;2024-01-07T05:24:52;4.32;;;2.20;;
51883;SDS011;37915;53.254;6.598;2024-01-07T05:27:18;9.20;;;2.58;;
51883;SDS011;37915;53.254;6.598;2024-01-07T05:29:45;4.85;;;2.20;;
51883;SDS011;37915;53.254;6.598;2024-01-07T05:32:12;5.30;;;2.20;;
51883;SDS011;37915;53.254;6.598;2024-01-07T05:34:38;3.85;;;2.00;;
51883;SDS011;37915;53.254;6.598;2024-01-07T05:37:04;6.25;;;2.30;;
51883;SDS011;37915;53.254;6.598;2024-01-07T05:39:30;6.38;;;2.75;;
51883;SDS011;37915;53.254;6.598;2024-01-07T05:41:56;5.85;;;2.15;;
51883;SDS011;37915;53.254;6.598;2024-01-07T05:44:22;4.82;;;1.70;;
51883;SDS011;37915;53.254;6.598;2024-01-07T05:46:48;7.20;;;2.45;;
51883;SDS011;37915;53.254;6.598;2024-01-07T05:49:14;3.83;;;2.17;;
51883;SDS011;37915;53.254;6.598;2024-01-07T05:51:40;5.65;;;2.20;;
51883;SDS011;37915;53.254;6.598;2024-01-07T05:54:07;4.03;;;2.08;;
51883;SDS011;37915;53.254;6.598;2024-01-07T05:56:37;5.32;;;2.30;;
51883;SDS011;37915;53.254;6.598;2024-01-07T05:59:04;3.90;;;2.05;;
51883;SDS011;37915;53.254;6.598;2024-01-07T06:01:30;8.45;;;2.33;;
51883;SDS011;37915;53.254;6.598;2024-01-07T06:03:56;6.07;;;2.13;;
51883;SDS011;37915;53.254;6.598;2024-01-07T06:06:22;8.27;;;1.95;;
51883;SDS011;37915;53.254;6.598;2024-01-07T06:08:48;8.25;;;2.22;;
51883;SDS011;37915;53.254;6.598;2024-01-07T06:11:15;7.07;;;2.00;;
51883;SDS011;37915;53.254;6.598;2024-01-07T06:13:45;4.82;;;2.10;;
51883;SDS011;37915;53.254;6.598;2024-01-07T06:16:11;7.70;;;3.47;;
51883;SDS011;37915;53.254;6.598;2024-01-07T06:18:37;5.90;;;1.73;;
51883;SDS011;37915;53.254;6.598;2024-01-07T06:21:04;9.95;;;2.15;;
51883;SDS011;37915;53.254;6.598;2024-01-07T06:23:32;3.85;;;1.65;;
51883;SDS011;37915;53.254;6.598;2024-01-07T06:25:58;6.03;;;2.20;;
51883;SDS011;37915;53.254;6.598;2024-01-07T06:28:24;6.07;;;2.42;;
51883;SDS011;37915;53.254;6.598;2024-01-07T06:30:51;6.05;;;2.33;;
51883;SDS011;37915;53.254;6.598;2024-01-07T06:33:17;8.98;;;2.05;;
51883;SDS011;37915;53.254;6.598;2024-01-07T06:35:43;3.75;;;1.85;;
51883;SDS011;37915;53.254;6.598;2024-01-07T06:38:10;7.65;;;1.90;;
51883;SDS011;37915;53.254;6.598;2024-01-07T06:40:36;5.95;;;2.00;;
51883;SDS011;37915;53.254;6.598;2024-01-07T06:43:02;5.97;;;2.00;;
51883;SDS011;37915;53.254;6.598;2024-01-07T06:45:28;3.83;;;1.90;;
51883;SDS011;37915;53.254;6.598;2024-01-07T06:47:54;7.60;;;1.85;;
51883;SDS011;37915;53.254;6.598;2024-01-07T06:50:20;4.38;;;2.15;;
51883;SDS011;37915;53.254;6.598;2024-01-07T06:52:47;4.38;;;1.85;;
51883;SDS011;37915;53.254;6.598;2024-01-07T06:55:13;4.15;;;1.80;;
51883;SDS011;37915;53.254;6.598;2024-01-07T06:57:39;5.68;;;2.17;;
51883;SDS011;37915;53.254;6.598;2024-01-07T07:00:05;3.85;;;1.75;;
51883;SDS011;37915;53.254;6.598;2024-01-07T07:02:32;4.25;;;1.60;;
51883;SDS011;37915;53.254;6.598;2024-01-07T07:04:59;4.05;;;1.95;;
51883;SDS011;37915;53.254;6.598;2024-01-07T07:07:25;3.25;;;1.58;;
51883;SDS011;37915;53.254;6.598;2024-01-07T07:09:51;4.60;;;1.80;;
51883;SDS011;37915;53.254;6.598;2024-01-07T07:12:17;4.45;;;2.20;;
51883;SDS011;37915;53.254;6.598;2024-01-07T07:14:43;5.90;;;2.13;;
51883;SDS011;37915;53.254;6.598;2024-01-07T07:17:09;5.05;;;2.13;;
51883;SDS011;37915;53.254;6.598;2024-01-07T07:19:35;4.55;;;1.98;;
51883;SDS011;37915;53.254;6.598;2024-01-07T07:22:02;7.45;;;2.33;;
51883;SDS011;37915;53.254;6.598;2024-01-07T07:24:28;4.93;;;1.70;;
51883;SDS011;37915;53.254;6.598;2024-01-07T07:26:54;6.10;;;2.25;;
51883;SDS011;37915;53.254;6.598;2024-01-07T07:29:20;4.45;;;1.88;;
51883;SDS011;37915;53.254;6.598;2024-01-07T07:31:46;5.85;;;2.90;;
51883;SDS011;37915;53.254;6.598;2024-01-07T07:34:12;4.03;;;1.70;;
51883;SDS011;37915;53.254;6.598;2024-01-07T07:36:38;4.15;;;1.95;;
51883;SDS011;37915;53.254;6.598;2024-01-07T07:39:06;5.13;;;2.00;;
51883;SDS011;37915;53.254;6.598;2024-01-07T07:41:32;4.90;;;1.73;;
51883;SDS011;37915;53.254;6.598;2024-01-07T07:43:58;4.03;;;2.10;;
51883;SDS011;37915;53.254;6.598;2024-01-07T07:46:24;4.97;;;1.98;;
51883;SDS011;37915;53.254;6.598;2024-01-07T07:48:50;4.53;;;2.38;;
51883;SDS011;37915;53.254;6.598;2024-01-07T07:51:16;10.13;;;2.08;;
51883;SDS011;37915;53.254;6.598;2024-01-07T07:53:42;5.53;;;1.85;;
51883;SDS011;37915;53.254;6.598;2024-01-07T07:56:09;3.40;;;2.10;;
51883;SDS011;37915;53.254;6.598;2024-01-07T07:58:35;6.22;;;2.13;;
51883;SDS011;37915;53.254;6.598;2024-01-07T08:01:01;5.45;;;2.33;;
51883;SDS011;37915;53.254;6.598;2024-01-07T08:03:27;5.43;;;2.50;;
51883;SDS011;37915;53.254;6.598;2024-01-07T08:05:53;4.93;;;2.20;;
51883;SDS011;37915;53.254;6.598;2024-01-07T08:08:19;6.47;;;2.10;;
51883;SDS011;37915;53.254;6.598;2024-01-07T08:10:45;4.65;;;2.00;;
51883;SDS011;37915;53.254;6.598;2024-01-07T08:13:11;5.50;;;2.40;;
51883;SDS011;37915;53.254;6.598;2024-01-07T08:15:37;8.45;;;2.25;;
51883;SDS011;37915;53.254;6.598;2024-01-07T08:18:04;6.07;;;2.42;;
51883;SDS011;37915;53.254;6.598;2024-01-07T08:20:30;4.80;;;1.83;;
51883;SDS011;37915;53.254;6.598;2024-01-07T08:22:56;4.43;;;2.05;;
51883;SDS011;37915;53.254;6.598;2024-01-07T08:25:22;4.10;;;2.30;;
51883;SDS011;37915;53.254;6.598;2024-01-07T08:27:48;4.78;;;1.90;;
51883;SDS011;37915;53.254;6.598;2024-01-07T08:30:15;11.52;;;2.60;;
51883;SDS011;37915;53.254;6.598;2024-01-07T08:32:41;6.28;;;2.17;;
51883;SDS011;37915;53.254;6.598;2024-01-07T08:35:08;6.03;;;2.30;;
51883;SDS011;37915;53.254;6.598;2024-01-07T08:37:34;4.88;;;2.10;;
51883;SDS011;37915;53.254;6.598;2024-01-07T08:40:00;4.32;;;2.03;;
51883;SDS011;37915;53.254;6.598;2024-01-07T08:42:27;7.20;;;3.20;;
51883;SDS011;37915;53.254;6.598;2024-01-07T08:44:55;3.97;;;1.98;;
51883;SDS011;37915;53.254;6.598;2024-01-07T08:47:21;7.07;;;2.25;;
51883;SDS011;37915;53.254;6.598;2024-01-07T08:49:47;8.85;;;2.42;;
51883;SDS011;37915;53.254;6.598;2024-01-07T08:52:13;4.68;;;2.15;;
51883;SDS011;37915;53.254;6.598;2024-01-07T08:54:39;5.25;;;1.90;;
51883;SDS011;37915;53.254;6.598;2024-01-07T08:57:05;4.00;;;2.08;;
51883;SDS011;37915;53.254;6.598;2024-01-07T08:59:33;7.13;;;3.47;;
51883;SDS011;37915;53.254;6.598;2024-01-07T09:02:00;4.05;;;2.22;;
51883;SDS011;37915;53.254;6.598;2024-01-07T09:04:26;5.28;;;2.30;;
51883;SDS011;37915;53.254;6.598;2024-01-07T09:06:52;6.00;;;2.83;;
51883;SDS011;37915;53.254;6.598;2024-01-07T09:09:18;6.03;;;2.53;;
51883;SDS011;37915;53.254;6.598;2024-01-07T09:11:44;4.68;;;2.30;;
51883;SDS011;37915;53.254;6.598;2024-01-07T09:14:11;6.93;;;2.33;;
51883;SDS011;37915;53.254;6.598;2024-01-07T09:16:37;5.30;;;2.40;;
51883;SDS011;37915;53.254;6.598;2024-01-07T09:19:03;5.85;;;2.75;;
51883;SDS011;37915;53.254;6.598;2024-01-07T09:21:29;5.57;;;2.92;;
51883;SDS011;37915;53.254;6.598;2024-01-07T09:23:55;9.23;;;2.72;;
51883;SDS011;37915;53.254;6.598;2024-01-07T09:26:21;4.47;;;2.50;;
51883;SDS011;37915;53.254;6.598;2024-01-07T09:28:47;12.20;;;3.00;;
51883;SDS011;37915;53.254;6.598;2024-01-07T09:31:13;4.93;;;2.50;;
51883;SDS011;37915;53.254;6.598;2024-01-07T09:33:40;5.97;;;2.67;;
51883;SDS011;37915;53.254;6.598;2024-01-07T09:36:06;5.95;;;2.72;;
51883;SDS011;37915;53.254;6.598;2024-01-07T09:38:33;7.90;;;2.47;;
51883;SDS011;37915;53.254;6.598;2024-01-07T09:40:59;7.00;;;2.75;;
51883;SDS011;37915;53.254;6.598;2024-01-07T09:43:25;4.88;;;2.10;;
51883;SDS011;37915;53.254;6.598;2024-01-07T09:45:51;6.22;;;2.60;;
51883;SDS011;37915;53.254;6.598;2024-01-07T09:48:19;4.57;;;2.28;;
51883;SDS011;37915;53.254;6.598;2024-01-07T09:50:45;6.38;;;2.45;;
51883;SDS011;37915;53.254;6.598;2024-01-07T09:53:11;5.63;;;2.17;;
51883;SDS011;37915;53.254;6.598;2024-01-07T09:55:51;7.13;;;2.28;;
51883;SDS011;37915;53.254;6.598;2024-01-07T09:58:18;24.50;;;3.50;;
51883;SDS011;37915;53.254;6.598;2024-01-07T10:00:45;8.77;;;2.30;;
51883;SDS011;37915;53.254;6.598;2024-01-07T10:03:11;9.70;;;2.65;;
51883;SDS011;37915;53.254;6.598;2024-01-07T10:05:37;3.30;;;1.90;;
51883;SDS011;37915;53.254;6.598;2024-01-07T10:08:03;8.80;;;2.25;;
51883;SDS011;37915;53.254;6.598;2024-01-07T10:10:30;5.47;;;2.45;;
51883;SDS011;37915;53.254;6.598;2024-01-07T10:12:56;5.32;;;2.40;;
51883;SDS011;37915;53.254;6.598;2024-01-07T10:15:22;6.47;;;2.58;;
51883;SDS011;37915;53.254;6.598;2024-01-07T10:17:48;9.13;;;2.70;;
51883;SDS011;37915;53.254;6.598;2024-01-07T10:20:16;5.38;;;2.50;;
51883;SDS011;37915;53.254;6.598;2024-01-07T10:22:46;5.10;;;1.70;;
51883;SDS011;37915;53.254;6.598;2024-01-07T10:25:13;4.88;;;2.28;;
51883;SDS011;37915;53.254;6.598;2024-01-07T10:27:40;5.80;;;2.00;;
51883;SDS011;37915;53.254;6.598;2024-01-07T10:30:06;8.45;;;2.50;;
51883;SDS011;37915;53.254;6.598;2024-01-07T10:32:35;7.43;;;2.13;;
51883;SDS011;37915;53.254;6.598;2024-01-07T10:35:05;7.82;;;2.70;;
51883;SDS011;37915;53.254;6.598;2024-01-07T10:37:31;7.50;;;2.83;;
51883;SDS011;37915;53.254;6.598;2024-01-07T10:39:58;8.68;;;2.88;;
51883;SDS011;37915;53.254;6.598;2024-01-07T10:42:31;9.73;;;2.78;;
51883;SDS011;37915;53.254;6.598;2024-01-07T10:44:58;6.85;;;2.83;;
51883;SDS011;37915;53.254;6.598;2024-01-07T10:47:25;7.85;;;2.78;;
51883;SDS011;37915;53.254;6.598;2024-01-07T10:49:55;8.45;;;2.75;;
51883;SDS011;37915;53.254;6.598;2024-01-07T10:52:22;5.82;;;2.85;;
51883;SDS011;37915;53.254;6.598;2024-01-07T10:54:49;6.72;;;2.92;;
51883;SDS011;37915;53.254;6.598;2024-01-07T10:57:26;4.75;;;2.42;;
51883;SDS011;37915;53.254;6.598;2024-01-07T10:59:53;7.90;;;3.03;;
51883;SDS011;37915;53.254;6.598;2024-01-07T11:02:19;6.25;;;2.28;;
51883;SDS011;37915;53.254;6.598;2024-01-07T11:08:18;6.78;;;2.83;;
51883;SDS011;37915;53.254;6.598;2024-01-07T11:10:17;9.98;;;2.53;;
51883;SDS011;37915;53.254;6.598;2024-01-07T11:12:53;6.93;;;2.65;;
51883;SDS011;37915;53.254;6.598;2024-01-07T11:16:05;8.90;;;3.45;;
51883;SDS011;37915;53.254;6.598;2024-01-07T11:18:06;15.75;;;3.97;;
51883;SDS011;37915;53.254;6.598;2024-01-07T11:20:32;9.75;;;2.78;;
51883;SDS011;37915;53.254;6.598;2024-01-07T11:23:45;8.15;;;3.17;;
51883;SDS011;37915;53.254;6.598;2024-01-07T11:25:45;6.32;;;3.03;;
51883;SDS011;37915;53.254;6.598;2024-01-07T11:28:12;9.43;;;3.55;;
51883;SDS011;37915;53.254;6.598;2024-01-07T11:30:38;8.43;;;3.28;;
51883;SDS011;37915;53.254;6.598;2024-01-07T11:33:06;8.55;;;3.42;;
51883;SDS011;37915;53.254;6.598;2024-01-07T11:35:53;8.52;;;4.35;;
51883;SDS011;37915;53.254;6.598;2024-01-07T11:38:18;7.80;;;3.22;;
51883;SDS011;37915;53.254;6.598;2024-01-07T11:40:44;10.57;;;3.95;;
51883;SDS011;37915;53.254;6.598;2024-01-07T11:43:11;11.15;;;4.25;;
51883;SDS011;37915;53.254;6.598;2024-01-07T11:45:37;11.05;;;3.60;;
51883;SDS011;37915;53.254;6.598;2024-01-07T11:48:04;12.68;;;4.10;;
51883;SDS011;37915;53.254;6.598;2024-01-07T11:50:31;10.13;;;3.95;;
51883;SDS011;37915;53.254;6.598;2024-01-07T11:52:57;5.88;;;3.45;;
51883;SDS011;37915;53.254;6.598;2024-01-07T11:55:23;11.52;;;3.38;;
51883;SDS011;37915;53.254;6.598;2024-01-07T11:57:50;12.50;;;4.07;;
51883;SDS011;37915;53.254;6.598;2024-01-07T12:00:17;6.47;;;3.90;;
51883;SDS011;37915;53.254;6.598;2024-01-07T12:02:45;10.48;;;3.70;;
51883;SDS011;37915;53.254;6.598;2024-01-07T12:05:11;11.13;;;3.85;;
51883;SDS011;37915;53.254;6.598;2024-01-07T12:07:40;7.57;;;3.63;;
51883;SDS011;37915;53.254;6.598;2024-01-07T12:10:07;5.97;;;3.63;;
51883;SDS011;37915;53.254;6.598;2024-01-07T12:12:40;7.38;;;3.65;;
51883;SDS011;37915;53.254;6.598;2024-01-07T12:15:07;10.30;;;4.40;;
51883;SDS011;37915;53.254;6.598;2024-01-07T12:17:33;9.40;;;3.72;;
51883;SDS011;37915;53.254;6.598;2024-01-07T12:20:00;9.48;;;4.32;;
51883;SDS011;37915;53.254;6.598;2024-01-07T12:22:30;11.98;;;4.22;;
51883;SDS011;37915;53.254;6.598;2024-01-07T12:24:59;11.23;;;4.60;;
51883;SDS011;37915;53.254;6.598;2024-01-07T12:27:26;9.63;;;3.72;;
51883;SDS011;37915;53.254;6.598;2024-01-07T12:29:55;6.35;;;3.72;;
51883;SDS011;37915;53.254;6.598;2024-01-07T12:32:22;6.63;;;3.17;;
51883;SDS011;37915;53.254;6.598;2024-01-07T12:34:48;6.60;;;3.38;;
51883;SDS011;37915;53.254;6.598;2024-01-07T12:37:17;10.35;;;3.78;;
51883;SDS011;37915;53.254;6.598;2024-01-07T12:39:43;9.82;;;3.53;;
51883;SDS011;37915;53.254;6.598;2024-01-07T12:42:12;10.05;;;3.70;;
51883;SDS011;37915;53.254;6.598;2024-01-07T12:44:38;6.53;;;3.28;;
51883;SDS011;37915;53.254;6.598;2024-01-07T12:47:04;7.30;;;3.33;;
51883;SDS011;37915;53.254;6.598;2024-01-07T12:49:31;8.57;;;3.35;;
51883;SDS011;37915;53.254;6.598;2024-01-07T12:51:57;12.25;;;4.30;;
51883;SDS011;37915;53.254;6.598;2024-01-07T12:54:23;8.63;;;3.97;;
51883;SDS011;37915;53.254;6.598;2024-01-07T12:56:50;10.13;;;3.95;;
51883;SDS011;37915;53.254;6.598;2024-01-07T12:59:17;8.05;;;3.55;;
51883;SDS011;37915;53.254;6.598;2024-01-07T13:01:43;5.65;;;3.40;;
51883;SDS011;37915;53.254;6.598;2024-01-07T13:04:09;6.28;;;3.40;;
51883;SDS011;37915;53.254;6.598;2024-01-07T13:06:35;6.13;;;3.90;;
51883;SDS011;37915;53.254;6.598;2024-01-07T13:09:01;10.52;;;4.15;;
51883;SDS011;37915;53.254;6.598;2024-01-07T13:11:29;6.53;;;4.35;;
51883;SDS011;37915;53.254;6.598;2024-01-07T13:13:55;14.25;;;4.07;;
51883;SDS011;37915;53.254;6.598;2024-01-07T13:16:26;7.85;;;3.72;;
51883;SDS011;37915;53.254;6.598;2024-01-07T13:18:53;7.57;;;3.92;;
51883;SDS011;37915;53.254;6.598;2024-01-07T13:21:19;10.63;;;3.92;;
51883;SDS011;37915;53.254;6.598;2024-01-07T13:23:48;7.40;;;3.40;;
51883;SDS011;37915;53.254;6.598;2024-01-07T13:26:15;10.77;;;3.42;;
51883;SDS011;37915;53.254;6.598;2024-01-07T13:28:41;7.57;;;3.67;;
51883;SDS011;37915;53.254;6.598;2024-01-07T13:31:08;8.27;;;3.25;;
51883;SDS011;37915;53.254;6.598;2024-01-07T13:33:37;8.45;;;4.15;;
51883;SDS011;37915;53.254;6.598;2024-01-07T13:36:03;6.72;;;3.10;;
51883;SDS011;37915;53.254;6.598;2024-01-07T13:38:34;9.63;;;4.20;;
51883;SDS011;37915;53.254;6.598;2024-01-07T13:41:00;7.93;;;4.13;;
51883;SDS011;37915;53.254;6.598;2024-01-07T13:43:26;7.85;;;3.65;;
51883;SDS011;37915;53.254;6.598;2024-01-07T13:45:54;10.43;;;3.97;;
51883;SDS011;37915;53.254;6.598;2024-01-07T13:48:21;7.85;;;3.88;;
51883;SDS011;37915;53.254;6.598;2024-01-07T13:50:47;8.20;;;4.20;;
51883;SDS011;37915;53.254;6.598;2024-01-07T13:53:14;7.30;;;4.15;;
51883;SDS011;37915;53.254;6.598;2024-01-07T13:55:40;9.80;;;4.47;;
51883;SDS011;37915;53.254;6.598;2024-01-07T13:58:06;9.27;;;3.70;;
51883;SDS011;37915;53.254;6.598;2024-01-07T14:00:32;10.65;;;4.35;;
51883;SDS011;37915;53.254;6.598;2024-01-07T14:02:59;11.00;;;4.32;;
51883;SDS011;37915;53.254;6.598;2024-01-07T14:05:25;8.25;;;3.80;;
51883;SDS011;37915;53.254;6.598;2024-01-07T14:07:51;11.23;;;3.80;;
51883;SDS011;37915;53.254;6.598;2024-01-07T14:10:17;11.77;;;4.65;;
51883;SDS011;37915;53.254;6.598;2024-01-07T14:12:44;10.65;;;3.90;;
51883;SDS011;37915;53.254;6.598;2024-01-07T14:15:11;7.40;;;3.53;;
51883;SDS011;37915;53.254;6.598;2024-01-07T14:17:37;9.82;;;3.55;;
51883;SDS011;37915;53.254;6.598;2024-01-07T14:20:05;11.52;;;4.78;;
51883;SDS011;37915;53.254;6.598;2024-01-07T14:22:32;8.85;;;3.30;;
51883;SDS011;37915;53.254;6.598;2024-01-07T14:24:59;9.77;;;3.38;;
51883;SDS011;37915;53.254;6.598;2024-01-07T14:27:25;6.43;;;3.67;;
51883;SDS011;37915;53.254;6.598;2024-01-07T14:29:52;10.20;;;4.28;;
51883;SDS011;37915;53.254;6.598;2024-01-07T14:32:18;6.90;;;3.65;;
51883;SDS011;37915;53.254;6.598;2024-01-07T14:34:44;12.20;;;3.78;;
51883;SDS011;37915;53.254;6.598;2024-01-07T14:37:10;9.80;;;4.13;;
51883;SDS011;37915;53.254;6.598;2024-01-07T14:39:36;9.38;;;4.28;;
51883;SDS011;37915;53.254;6.598;2024-01-07T14:42:03;9.68;;;3.50;;